createdAt,value
2019-02-07T00:01:28.699Z,-1.30
2019-02-07T00:03:58.763Z,-1.30
2019-02-07T00:06:29.018Z,-1.20
2019-02-07T00:08:59.439Z,-1.30
2019-02-07T00:11:29.803Z,-1.30
2019-02-07T00:13:59.849Z,-1.30
2019-02-07T00:16:30.016Z,-1.30
2019-02-07T00:18:59.906Z,-1.20
2019-02-07T00:21:29.007Z,-1.20
2019-02-07T00:23:59.136Z,-1.20
2019-02-07T00:26:29.275Z,-1.30
2019-02-07T00:28:59.507Z,-1.30
2019-02-07T00:31:29.927Z,-1.30
2019-02-07T00:33:59.991Z,-1.30
2019-02-07T00:36:30.075Z,-1.30
2019-02-07T00:39:00.109Z,-1.30
2019-02-07T00:41:30.261Z,-1.30
2019-02-07T00:44:00.360Z,-1.30
2019-02-07T00:46:30.746Z,-1.30
2019-02-07T00:49:00.142Z,-1.30
2019-02-07T00:51:30.027Z,-1.30
2019-02-07T00:54:00.107Z,-1.20
2019-02-07T00:56:30.336Z,-1.30
2019-02-07T00:59:00.710Z,-1.20
2019-02-07T01:01:30.315Z,-1.20
2019-02-07T01:04:00.039Z,-1.20
2019-02-07T01:06:30.019Z,-1.10
2019-02-07T01:08:59.767Z,-1.10
2019-02-07T01:11:30.320Z,-1.20
2019-02-07T01:14:00.082Z,-1.20
2019-02-07T01:16:30.070Z,-1.20
2019-02-07T01:19:00.464Z,-1.20
2019-02-07T01:21:31.063Z,-1.20
2019-02-07T01:24:01.123Z,-1.10
2019-02-07T01:26:31.140Z,-1.10
2019-02-07T01:29:01.543Z,-1.10
2019-02-07T01:31:31.062Z,-1.10
2019-02-07T01:34:00.811Z,-1.10
2019-02-07T01:36:30.932Z,-1.10
2019-02-07T01:39:01.382Z,-1.10
2019-02-07T01:41:31.695Z,-1.10
2019-02-07T01:44:02.003Z,-1.20
2019-02-07T01:46:31.997Z,-1.20
2019-02-07T01:49:02.115Z,-1.10
2019-02-07T01:51:32.437Z,-1.10
2019-02-07T01:54:02.682Z,-1.10
2019-02-07T01:56:32.553Z,-1.10
2019-02-07T01:59:02.835Z,-1.00
2019-02-07T02:01:32.632Z,-1.00
2019-02-07T02:04:02.530Z,-0.90
2019-02-07T02:06:32.618Z,-0.90
2019-02-07T02:09:03.164Z,-0.80
2019-02-07T02:11:32.563Z,-0.80
2019-02-07T02:14:02.024Z,-0.80
2019-02-07T02:16:31.861Z,-0.70
2019-02-07T02:19:02.288Z,-0.70
2019-02-07T02:21:33.037Z,-0.70
2019-02-07T02:24:03.068Z,-0.70
2019-02-07T02:26:33.068Z,-0.70
2019-02-07T02:29:03.276Z,-0.70
2019-02-07T02:31:33.003Z,-0.70
2019-02-07T02:34:02.903Z,-0.70
2019-02-07T02:36:33.507Z,-0.70
2019-02-07T02:39:04.660Z,-0.70
2019-02-07T02:41:34.920Z,-0.70
2019-02-07T02:44:05.383Z,-0.70
2019-02-07T02:46:35.428Z,-0.70
2019-02-07T02:49:05.847Z,-0.60
2019-02-07T02:51:35.619Z,-0.60
2019-02-07T02:54:05.225Z,-0.60
2019-02-07T02:56:35.509Z,-0.60
2019-02-07T02:59:05.590Z,-0.70
2019-02-07T03:01:57.085Z,-0.60
2019-02-07T03:04:55.197Z,-0.70
2019-02-07T03:07:49.868Z,-0.60
2019-02-07T03:10:36.768Z,-0.50
2019-02-07T03:13:37.396Z,-0.60
2019-02-07T03:16:23.041Z,-0.50
2019-02-07T03:19:19.151Z,-0.60
2019-02-07T03:21:57.647Z,-0.60
2019-02-07T03:25:01.842Z,-0.60
2019-02-07T03:27:57.088Z,-0.60
2019-02-07T03:30:45.012Z,-0.60
2019-02-07T03:33:21.615Z,-0.60
2019-02-07T03:36:10.096Z,-0.50
2019-02-07T03:38:57.192Z,-0.50
2019-02-07T03:41:45.037Z,-0.40
2019-02-07T03:44:33.071Z,-0.40
2019-02-07T03:47:13.157Z,-0.40
2019-02-07T03:49:57.162Z,-0.40
2019-02-07T03:52:54.867Z,-0.30
2019-02-07T03:55:43.820Z,-0.30
2019-02-07T03:58:31.044Z,-0.30
2019-02-07T04:01:26.783Z,-0.30
2019-02-07T04:04:23.938Z,-0.30
2019-02-07T04:07:11.983Z,-0.20
2019-02-07T04:09:59.500Z,-0.30
2019-02-07T04:13:03.672Z,-0.40
2019-02-07T04:16:15.322Z,-0.40
2019-02-07T04:19:19.530Z,-0.40
2019-02-07T04:22:14.577Z,-0.30
2019-02-07T04:25:01.442Z,-0.30
2019-02-07T04:27:50.725Z,-0.20
2019-02-07T04:30:33.287Z,-0.20
2019-02-07T04:33:33.951Z,-0.20
2019-02-07T04:36:14.186Z,-0.20
2019-02-07T04:38:52.411Z,-0.20
2019-02-07T04:41:47.417Z,-0.10
2019-02-07T04:44:45.870Z,-0.10
2019-02-07T04:47:37.076Z,-0.10
2019-02-07T04:50:30.864Z,-0.10
2019-02-07T04:53:22.250Z,-0.10
2019-02-07T04:56:19.826Z,-0.10
2019-02-07T04:59:11.823Z,-0.10
2019-02-07T05:02:09.330Z,-0.10
2019-02-07T05:05:04.335Z,-0.10
2019-02-07T05:07:51.549Z,-0.10
2019-02-07T05:10:43.469Z,0.00
2019-02-07T05:13:41.392Z,0.00
2019-02-07T05:16:43.394Z,0.00
2019-02-07T05:19:42.107Z,0.00
2019-02-07T05:22:29.655Z,0.00
2019-02-07T05:25:21.416Z,0.10
2019-02-07T05:28:08.261Z,0.10
2019-02-07T05:31:09.601Z,0.10
2019-02-07T05:34:07.383Z,0.20
2019-02-07T05:36:56.549Z,0.20
2019-02-07T05:39:43.606Z,0.20
2019-02-07T05:42:30.587Z,0.20
2019-02-07T05:45:37.771Z,0.30
2019-02-07T05:48:26.371Z,0.20
2019-02-07T05:51:15.302Z,0.20
2019-02-07T05:54:00.528Z,0.30
2019-02-07T05:56:48.687Z,0.20
2019-02-07T05:59:36.246Z,0.20
2019-02-07T06:02:14.270Z,0.30
2019-02-07T06:04:55.832Z,0.40
2019-02-07T06:07:43.138Z,0.40
2019-02-07T06:10:29.832Z,0.40
2019-02-07T06:13:32.914Z,0.50
2019-02-07T06:16:28.100Z,0.50
2019-02-07T06:19:14.938Z,0.50
2019-02-07T06:21:58.266Z,0.60
2019-02-07T06:24:45.280Z,0.60
2019-02-07T06:27:37.341Z,0.60
2019-02-07T06:30:33.992Z,0.60
2019-02-07T06:33:21.593Z,0.70
2019-02-07T06:36:09.316Z,0.70
2019-02-07T06:38:56.427Z,0.70
2019-02-07T06:41:45.950Z,0.70
2019-02-07T06:44:29.537Z,0.70
2019-02-07T06:47:23.820Z,0.70
2019-02-07T06:50:06.231Z,0.70
2019-02-07T06:53:01.131Z,0.70
2019-02-07T06:55:58.747Z,0.70
2019-02-07T06:58:46.115Z,0.80
2019-02-07T07:01:26.326Z,0.80
2019-02-07T07:04:13.587Z,0.80
2019-02-07T07:07:06.143Z,0.80
2019-02-07T07:09:53.533Z,0.80
2019-02-07T07:12:59.747Z,0.80
2019-02-07T07:16:04.287Z,0.80
2019-02-07T07:18:58.586Z,0.70
2019-02-07T07:22:02.319Z,0.70
2019-02-07T07:24:53.381Z,0.70
2019-02-07T07:27:51.348Z,0.70
2019-02-07T07:30:41.930Z,0.70
2019-02-07T07:33:29.525Z,0.80
2019-02-07T07:36:16.884Z,0.80
2019-02-07T07:39:11.836Z,0.80
2019-02-07T07:42:00.102Z,0.90
2019-02-07T07:44:57.527Z,0.90
2019-02-07T07:47:46.011Z,0.90
2019-02-07T07:50:34.912Z,0.90
2019-02-07T07:53:22.706Z,0.90
2019-02-07T07:56:26.844Z,0.90
2019-02-07T07:59:22.373Z,1.00
2019-02-07T08:02:15.728Z,1.10
2019-02-07T08:05:05.015Z,1.10
2019-02-07T08:07:59.471Z,1.10
2019-02-07T08:10:38.019Z,1.20
2019-02-07T08:13:42.102Z,1.10
2019-02-07T08:16:20.928Z,1.10
2019-02-07T08:19:08.551Z,1.10
2019-02-07T08:21:57.421Z,1.10
2019-02-07T08:24:52.218Z,1.10
2019-02-07T08:27:35.570Z,1.20
2019-02-07T08:30:36.245Z,1.00
2019-02-07T08:33:15.104Z,1.10
2019-02-07T08:36:13.554Z,1.10
2019-02-07T08:38:56.042Z,1.20
2019-02-07T08:41:54.163Z,1.30
2019-02-07T08:44:58.649Z,1.40
2019-02-07T08:47:45.718Z,1.50
2019-02-07T08:50:43.592Z,1.50
2019-02-07T08:53:41.452Z,1.60
2019-02-07T08:56:25.155Z,1.60
2019-02-07T08:59:13.099Z,1.70
2019-02-07T09:02:14.109Z,1.80
2019-02-07T09:05:03.271Z,1.80
2019-02-07T09:07:51.264Z,1.80
2019-02-07T09:10:51.904Z,1.90
2019-02-07T09:13:53.846Z,1.90
2019-02-07T09:16:40.667Z,1.90
2019-02-07T09:19:29.482Z,1.90
2019-02-07T09:22:24.092Z,2.10
2019-02-07T09:25:12.544Z,2.10
2019-02-07T09:28:10.039Z,2.10
2019-02-07T09:31:07.943Z,2.10
2019-02-07T09:33:56.755Z,2.00
2019-02-07T09:36:56.855Z,2.00
2019-02-07T09:39:51.357Z,1.90
2019-02-07T09:42:40.669Z,2.10
2019-02-07T09:45:41.167Z,2.20
2019-02-07T09:48:36.159Z,2.30
2019-02-07T09:51:27.688Z,2.30
2019-02-07T09:54:10.022Z,2.30
2019-02-07T09:56:52.534Z,2.50
2019-02-07T09:59:50.265Z,2.60
2019-02-07T10:02:37.954Z,2.90
2019-02-07T10:05:26.887Z,2.90
2019-02-07T10:08:24.383Z,3.00
2019-02-07T10:11:24.644Z,3.10
2019-02-07T10:14:07.452Z,3.20
2019-02-07T10:16:45.058Z,3.30
2019-02-07T10:19:30.994Z,3.30
2019-02-07T10:22:17.935Z,3.20
2019-02-07T10:25:00.697Z,3.30
2019-02-07T10:27:40.763Z,3.50
2019-02-07T10:30:50.958Z,3.60
2019-02-07T10:33:58.001Z,3.60
2019-02-07T10:36:44.994Z,3.60
2019-02-07T10:39:34.113Z,3.40
2019-02-07T10:42:21.828Z,3.20
2019-02-07T10:45:03.606Z,3.20
2019-02-07T10:47:58.845Z,3.20
2019-02-07T10:50:59.899Z,3.10
2019-02-07T10:53:41.707Z,3.40
2019-02-07T10:56:30.511Z,3.30
2019-02-07T10:59:18.225Z,3.30
2019-02-07T11:02:05.913Z,3.40
2019-02-07T11:04:54.860Z,3.50
2019-02-07T11:07:42.151Z,3.40
2019-02-07T11:10:31.567Z,3.40
2019-02-07T11:13:22.535Z,3.50
2019-02-07T11:31:05.884Z,4.00
2019-02-07T11:33:54.621Z,3.80
2019-02-07T11:36:41.064Z,3.80
2019-02-07T11:39:30.382Z,3.90
2019-02-07T11:42:18.853Z,3.90
2019-02-07T11:45:19.503Z,3.80
2019-02-07T11:48:07.215Z,3.80
2019-02-07T11:51:02.300Z,3.70
2019-02-07T11:53:57.151Z,3.80
2019-02-07T11:56:49.557Z,3.90
2019-02-07T11:59:39.180Z,3.90
2019-02-07T12:02:35.188Z,4.00
2019-02-07T12:05:24.043Z,4.00
2019-02-07T12:08:13.155Z,4.10
2019-02-07T12:10:57.149Z,4.20
2019-02-07T12:13:45.123Z,4.20
2019-02-07T12:16:33.572Z,4.10
2019-02-07T12:19:18.238Z,4.30
2019-02-07T12:22:01.467Z,4.40
2019-02-07T12:24:50.212Z,4.40
2019-02-07T12:27:38.092Z,4.40
2019-02-07T12:30:33.491Z,4.30
2019-02-07T12:33:40.665Z,4.20
2019-02-07T12:36:20.176Z,4.30
2019-02-07T12:38:56.695Z,4.30
2019-02-07T12:41:51.379Z,4.40
2019-02-07T12:44:48.982Z,4.50
2019-02-07T12:47:39.164Z,4.50
2019-02-07T12:50:41.604Z,4.70
2019-02-07T12:53:23.700Z,4.70
2019-02-07T12:56:04.164Z,5.00
2019-02-07T12:58:50.414Z,5.30
2019-02-07T13:01:42.342Z,5.40
2019-02-07T13:04:32.182Z,5.30
2019-02-07T13:07:30.203Z,5.30
2019-02-07T13:10:21.949Z,5.50
2019-02-07T13:13:09.361Z,5.50
2019-02-07T13:15:57.642Z,5.50
2019-02-07T13:18:46.521Z,5.60
2019-02-07T13:21:35.287Z,5.40
2019-02-07T13:24:17.949Z,5.50
2019-02-07T13:27:04.138Z,5.40
2019-02-07T13:30:02.016Z,5.50
2019-02-07T13:32:49.612Z,5.40
2019-02-07T13:35:40.819Z,5.40
2019-02-07T13:38:41.999Z,5.50
2019-02-07T13:41:29.310Z,5.40
2019-02-07T13:44:18.136Z,5.50
2019-02-07T13:47:05.477Z,5.60
2019-02-07T13:49:53.300Z,5.70
2019-02-07T13:52:42.028Z,5.70
2019-02-07T13:55:34.165Z,5.60
2019-02-07T13:58:23.422Z,5.50
2019-02-07T14:01:14.989Z,5.60
2019-02-07T14:04:08.422Z,5.50
2019-02-07T14:07:06.467Z,5.50
2019-02-07T14:10:07.231Z,5.50
2019-02-07T14:12:55.414Z,5.60
2019-02-07T14:15:49.942Z,5.50
2019-02-07T14:18:41.397Z,5.50
2019-02-07T14:21:20.219Z,5.60
2019-02-07T14:23:58.397Z,5.50
2019-02-07T14:26:58.775Z,5.50
2019-02-07T14:29:37.596Z,5.50
2019-02-07T14:32:32.649Z,5.50
2019-02-07T14:35:37.468Z,5.60
2019-02-07T14:38:26.915Z,5.70
2019-02-07T14:41:33.550Z,5.70
2019-02-07T14:44:21.760Z,5.50
2019-02-07T14:49:15.432Z,5.70
2019-02-07T14:51:44.851Z,5.70
2019-02-07T14:54:15.655Z,5.70
2019-02-07T14:56:45.996Z,5.80
2019-02-07T14:59:16.368Z,5.70
2019-02-07T15:01:46.448Z,5.70
2019-02-07T15:04:16.448Z,5.70
2019-02-07T15:06:46.620Z,5.60
2019-02-07T15:09:18.487Z,5.60
2019-02-07T15:11:48.532Z,5.60
2019-02-07T15:14:18.815Z,5.60
2019-02-07T15:16:49.032Z,5.60
2019-02-07T15:19:19.346Z,5.60
2019-02-07T15:21:50.401Z,5.70
2019-02-07T15:24:20.534Z,5.70
2019-02-07T15:26:50.632Z,5.70
2019-02-07T15:29:22.982Z,5.70
2019-02-07T15:31:53.545Z,5.80
2019-02-07T15:34:23.675Z,5.80
2019-02-07T15:36:54.618Z,5.80
2019-02-07T15:39:24.107Z,5.80
2019-02-07T15:41:54.421Z,5.90
2019-02-07T15:44:24.621Z,5.90
2019-02-07T15:46:54.850Z,5.80
2019-02-07T15:49:24.717Z,5.90
2019-02-07T15:51:54.662Z,5.80
2019-02-07T15:54:25.473Z,5.80
2019-02-07T15:56:55.989Z,5.80
2019-02-07T15:59:54.366Z,5.90
2019-02-07T16:02:27.994Z,5.90
2019-02-07T16:04:58.746Z,5.80
2019-02-07T16:07:29.752Z,5.80
2019-02-07T16:10:00.294Z,5.80
2019-02-07T16:12:31.181Z,5.80
2019-02-07T16:15:01.855Z,5.90
2019-02-07T16:17:32.153Z,5.80
2019-02-07T16:20:02.206Z,5.80
2019-02-07T16:22:32.160Z,5.90
2019-02-07T16:25:02.895Z,5.80
2019-02-07T16:27:32.910Z,5.80
2019-02-07T16:30:03.060Z,5.70
2019-02-07T16:32:33.473Z,5.70
2019-02-07T16:35:03.745Z,5.80
2019-02-07T16:37:33.587Z,5.70
2019-02-07T16:40:03.915Z,5.70
2019-02-07T16:42:33.950Z,5.70
2019-02-07T16:45:03.197Z,5.70
2019-02-07T16:47:33.323Z,5.70
2019-02-07T16:50:03.304Z,5.60
2019-02-07T16:52:33.715Z,5.60
2019-02-07T16:55:03.991Z,5.60
2019-02-07T16:57:34.168Z,5.60
2019-02-07T17:00:05.591Z,5.70
2019-02-07T17:02:35.784Z,5.70
2019-02-07T17:05:07.666Z,5.60
2019-02-07T17:07:37.896Z,5.60
2019-02-07T17:10:10.135Z,5.50
2019-02-07T17:12:40.743Z,5.60
2019-02-07T17:15:12.893Z,5.60
2019-02-07T17:17:42.631Z,5.50
2019-02-07T17:20:17.286Z,5.50
2019-02-07T17:22:47.650Z,5.40
2019-02-07T17:25:18.218Z,5.40
2019-02-07T17:27:48.829Z,5.40
2019-02-07T17:30:19.346Z,5.50
2019-02-07T17:32:49.983Z,5.50
2019-02-07T17:35:20.975Z,5.60
2019-02-07T17:37:50.933Z,5.60
2019-02-07T17:40:21.812Z,5.60
2019-02-07T17:42:51.925Z,5.60
2019-02-07T17:45:24.097Z,5.50
2019-02-07T17:47:54.727Z,5.40
2019-02-07T17:50:27.709Z,5.40
2019-02-07T17:52:57.954Z,5.40
2019-02-07T17:55:27.697Z,5.30
2019-02-07T17:57:57.726Z,5.20
2019-02-07T18:00:53.106Z,5.10
2019-02-07T18:03:23.195Z,5.00
2019-02-07T18:05:53.989Z,5.10
2019-02-07T18:08:24.381Z,5.10
2019-02-07T18:10:55.218Z,5.10
2019-02-07T18:13:25.991Z,5.10
2019-02-07T18:15:57.516Z,5.10
2019-02-07T18:18:27.584Z,5.20
2019-02-07T18:20:58.084Z,5.20
2019-02-07T18:23:29.242Z,5.10
2019-02-07T18:25:59.629Z,5.10
2019-02-07T18:28:30.003Z,5.10
2019-02-07T18:31:00.322Z,5.10
2019-02-07T18:33:30.844Z,5.10
2019-02-07T18:36:01.056Z,5.10
2019-02-07T18:38:31.393Z,5.10
2019-02-07T18:41:01.235Z,5.00
2019-02-07T18:43:31.375Z,5.00
2019-02-07T18:46:00.957Z,5.00
2019-02-07T18:48:31.159Z,5.00
2019-02-07T18:51:01.104Z,5.00
2019-02-07T18:53:30.812Z,5.00
2019-02-07T18:56:00.797Z,5.00
2019-02-07T18:58:31.230Z,4.90
2019-02-07T19:01:02.101Z,4.80
2019-02-07T19:03:32.669Z,4.80
2019-02-07T19:06:03.183Z,4.80
2019-02-07T19:08:33.988Z,4.70
2019-02-07T19:11:03.654Z,4.70
2019-02-07T19:13:33.027Z,4.70
2019-02-07T19:16:19.046Z,4.70
2019-02-07T19:18:49.713Z,4.70
2019-02-07T19:21:20.154Z,4.60
2019-02-07T19:23:50.927Z,4.60
2019-02-07T19:26:23.584Z,4.60
2019-02-07T19:28:53.424Z,4.60
2019-02-07T19:31:23.704Z,4.70
2019-02-07T19:33:54.156Z,4.70
2019-02-07T19:36:24.667Z,4.80
2019-02-07T19:38:54.579Z,4.70
2019-02-07T19:41:25.080Z,4.70
2019-02-07T19:43:55.088Z,4.60
2019-02-07T19:46:25.049Z,4.60
2019-02-07T19:48:55.063Z,4.60
2019-02-07T19:51:25.866Z,4.60
2019-02-07T19:53:55.913Z,4.60
2019-02-07T19:56:25.674Z,4.60
2019-02-07T19:58:56.357Z,4.50
2019-02-07T20:01:26.704Z,4.60
2019-02-07T20:03:57.485Z,4.60
2019-02-07T20:06:28.068Z,4.50
2019-02-07T20:08:58.448Z,4.60
2019-02-07T20:11:28.282Z,4.60
2019-02-07T20:13:57.974Z,4.60
2019-02-07T20:16:27.820Z,4.60
2019-02-07T20:18:57.945Z,4.70
2019-02-07T20:21:28.326Z,4.70
2019-02-07T20:23:59.283Z,4.80
2019-02-07T20:26:29.975Z,4.80
2019-02-07T20:29:00.360Z,4.90
2019-02-07T20:31:30.876Z,4.80
2019-02-07T20:34:01.166Z,4.80
2019-02-07T20:36:31.191Z,4.80
2019-02-07T20:39:01.944Z,4.90
2019-02-07T20:41:32.842Z,4.80
2019-02-07T20:44:03.283Z,4.80
2019-02-07T20:46:33.915Z,4.90
2019-02-07T20:49:04.209Z,4.80
2019-02-07T20:51:35.555Z,4.80
2019-02-07T20:54:06.625Z,4.80
2019-02-07T20:56:37.228Z,4.80
2019-02-07T20:59:07.642Z,4.80
2019-02-07T21:01:38.584Z,4.80
2019-02-07T21:04:09.341Z,4.80
2019-02-07T21:06:38.785Z,4.80
2019-02-07T21:09:10.889Z,4.80
2019-02-07T21:11:41.238Z,4.80
2019-02-07T21:14:11.412Z,4.90
2019-02-07T21:16:41.033Z,4.80
2019-02-07T21:19:11.531Z,4.80
2019-02-07T21:21:41.646Z,4.80
2019-02-07T21:24:11.639Z,4.80
2019-02-07T21:26:41.692Z,4.80
2019-02-07T21:29:11.797Z,4.80
2019-02-07T21:31:42.018Z,4.70
2019-02-07T21:34:12.560Z,4.70
2019-02-07T21:36:42.687Z,4.70
2019-02-07T21:39:12.883Z,4.70
2019-02-07T21:41:43.207Z,4.80
2019-02-07T21:44:12.991Z,4.70
2019-02-07T21:46:42.866Z,4.70
2019-02-07T21:49:13.456Z,4.70
2019-02-07T21:51:43.537Z,4.70
2019-02-07T21:54:13.284Z,4.70
2019-02-07T21:56:43.192Z,4.80
2019-02-07T21:59:13.267Z,4.80
2019-02-07T22:01:44.236Z,4.90
2019-02-07T22:04:14.724Z,4.90
2019-02-07T22:06:44.463Z,4.90
2019-02-07T22:09:15.662Z,4.90
2019-02-07T22:11:45.030Z,4.90
2019-02-07T22:14:14.701Z,4.90
2019-02-07T22:16:45.205Z,4.90
2019-02-07T22:19:15.025Z,4.90
2019-02-07T22:21:44.820Z,4.90
2019-02-07T22:24:15.019Z,4.80
2019-02-07T22:26:45.122Z,4.80
2019-02-07T22:29:14.913Z,4.80
2019-02-07T22:31:45.085Z,4.70
2019-02-07T22:34:15.229Z,4.60
2019-02-07T22:36:45.080Z,4.60
2019-02-07T22:39:15.093Z,4.60
2019-02-07T22:41:45.065Z,4.70
2019-02-07T22:44:15.260Z,4.80
2019-02-07T22:46:44.584Z,4.80
2019-02-07T22:49:14.360Z,4.80
2019-02-07T22:51:44.760Z,4.80
2019-02-07T22:54:14.803Z,4.90
2019-02-07T22:56:46.037Z,5.00
2019-02-07T22:59:16.393Z,5.00
2019-02-07T23:01:55.146Z,5.00
2019-02-07T23:04:26.471Z,5.10
2019-02-07T23:06:56.501Z,5.10
2019-02-07T23:09:26.572Z,5.20
2019-02-07T23:11:57.059Z,5.20
2019-02-07T23:14:26.856Z,5.10
2019-02-07T23:16:56.493Z,5.10
2019-02-07T23:19:27.015Z,5.10
2019-02-07T23:21:57.119Z,5.10
2019-02-07T23:24:26.547Z,5.10
2019-02-07T23:26:56.734Z,5.20
2019-02-07T23:29:27.234Z,5.20
2019-02-07T23:31:57.242Z,5.20
2019-02-07T23:34:27.051Z,5.30
2019-02-07T23:36:57.384Z,5.30
2019-02-07T23:39:27.994Z,5.40
2019-02-07T23:41:58.316Z,5.40
2019-02-07T23:44:28.628Z,5.40
2019-02-07T23:46:58.620Z,5.50
2019-02-07T23:49:29.252Z,5.50
2019-02-07T23:51:59.373Z,5.50
2019-02-07T23:54:29.679Z,5.60
2019-02-07T23:57:00.087Z,5.60
2019-02-07T23:59:30.369Z,5.60
